Home   Weather   Heiloo   Past weeks
Flag for Netherlands

Past Weather in Heiloo, Netherlands — Yesterday and Last 2 Weeks

Currently: 64 °F. Passing clouds. (Weather station: Amsterdam Schiphol Airport, Netherlands). See more current weather

Past Weather in Heiloo — Graph

°F

Heiloo Temperature Yesterday

Maximum temperature yesterday: 64 °F (at 1:55 pm)
Minimum temperature yesterday: 55 °F (at 12:25 am)
Average temperature yesterday: 59 °F

High & Low Weather Summary for the Past Weeks

 TemperatureHumidityPressure
High81 °F (May 14, 2:25 pm)100% (May 14, 9:25 pm)30.09 "Hg (May 14, 9:25 pm)
Low52 °F (May 24, 3:55 am)39% (May 14, 3:55 pm)29.59 "Hg (May 16, 9:25 am)
Average61 °F83%29.85 "Hg
* Reported May 13 1:25 pm — May 28 1:55 pm, Heiloo. Weather by CustomWeather, © 2024

Note: Actual official high and low records may vary slightly from our data, if they occured in-between our weather recording intervals... More about our weather records

Heiloo Weather History for the Previous 24 Hours

Scroll right to see more
 ConditionsComfort  
Time TempWeatherWind HumidityBarometerVisibility
1:55 pm
Tue, May 28
64 °FPassing clouds.10 mph56%29.98 "HgN/A
1:25 pm64 °FPassing clouds.13 mph60%30.01 "HgN/A
12:55 pm64 °FPassing clouds.13 mph60%30.01 "HgN/A
12:25 pm63 °FPassing clouds.14 mph64%30.01 "HgN/A
11:55 am63 °FScattered clouds.14 mph64%30.01 "HgN/A
11:25 am61 °FScattered clouds.14 mph68%30.01 "HgN/A
10:55 am61 °FPassing clouds.15 mph72%30.04 "HgN/A
10:25 am59 °FScattered showers. Scattered clouds.14 mph77%30.04 "HgN/A
8:55 am55 °FScattered clouds.12 mph88%30.04 "HgN/A
8:25 am57 °FScattered clouds.13 mph82%30.04 "HgN/A
7:55 am55 °FPassing clouds.10 mph88%30.04 "HgN/A
7:25 am54 °FPassing clouds.12 mph94%30.01 "HgN/A
6:55 am54 °FSunny.8 mph94%30.01 "Hg10 mi
6:25 am52 °FSunny.8 mph94%30.01 "Hg10 mi
5:55 am52 °FSunny.10 mph94%30.01 "Hg10 mi
5:25 am52 °FPassing clouds.8 mph88%30.01 "HgN/A
4:55 am52 °FPassing clouds.9 mph88%30.01 "HgN/A
4:25 am52 °FPassing clouds.9 mph88%30.01 "HgN/A
3:55 am54 °FClear.10 mph82%30.01 "Hg10 mi
2:55 am54 °FPassing clouds.10 mph82%30.01 "HgN/A
2:25 am54 °FPassing clouds.8 mph82%30.01 "HgN/A
1:55 am54 °FPassing clouds.8 mph88%30.04 "HgN/A
1:25 am55 °FPassing clouds.8 mph77%30.01 "HgN/A
12:55 am55 °FPassing clouds.6 mph88%30.04 "HgN/A
12:25 am55 °FPassing clouds.5 mph88%30.04 "HgN/A
11:55 pm
Mon, May 27
55 °FPassing clouds.7 mph77%30.04 "HgN/A
11:25 pm55 °FPassing clouds.6 mph82%30.04 "HgN/A
10:55 pm57 °FPassing clouds.9 mph72%30.04 "HgN/A
10:25 pm57 °FPassing clouds.6 mph72%30.04 "HgN/A
9:55 pm57 °FPassing clouds.8 mph72%30.01 "HgN/A
8:55 pm59 °FPassing clouds.9 mph63%30.01 "HgN/A
8:25 pm59 °FPassing clouds.10 mph59%30.01 "HgN/A
7:55 pm59 °FSunny.13 mph63%30.01 "Hg10 mi
7:25 pm59 °FPassing clouds.12 mph63%30.01 "HgN/A
6:55 pm61 °FPassing clouds.13 mph63%30.01 "HgN/A
6:25 pm63 °FPassing clouds.13 mph59%30.01 "HgN/A
5:55 pm63 °FPassing clouds.13 mph59%30.01 "HgN/A
5:25 pm63 °FPassing clouds.12 mph56%30.01 "HgN/A
4:55 pm63 °FPassing clouds.14 mph52%30.01 "HgN/A
4:25 pm63 °FPassing clouds.15 mph49%30.01 "HgN/A
3:55 pm64 °FPassing clouds.14 mph56%30.01 "HgN/A
3:25 pm63 °FPassing clouds.13 mph56%30.01 "HgN/A
Weather by CustomWeather, © 2024

See weather overview